createdAt,value
2023-04-25T00:00:58.446Z,95282.00
2023-04-25T00:01:58.452Z,95276.00
2023-04-25T00:02:57.592Z,95280.00
2023-04-25T00:03:58.862Z,95280.00
2023-04-25T00:04:58.578Z,95280.00
2023-04-25T00:05:58.519Z,95278.00
2023-04-25T00:06:58.404Z,95278.00
2023-04-25T00:07:58.411Z,95280.00
2023-04-25T00:08:58.410Z,95278.00
2023-04-25T00:09:57.389Z,95280.00
2023-04-25T00:10:58.374Z,95280.00
2023-04-25T00:11:58.371Z,95286.00
2023-04-25T00:12:58.460Z,95282.00
2023-04-25T00:13:57.371Z,95286.00
2023-04-25T00:14:58.371Z,95286.00
2023-04-25T00:15:58.395Z,95280.00
2023-04-25T00:16:57.328Z,95282.00
2023-04-25T00:17:58.351Z,95282.00
2023-04-25T00:18:58.335Z,95284.00
2023-04-25T00:19:58.308Z,95284.00
2023-04-25T00:20:58.309Z,95278.00
2023-04-25T00:21:58.455Z,95280.00
2023-04-25T00:22:57.373Z,95276.00
2023-04-25T00:23:58.305Z,95276.00
2023-04-25T00:24:58.277Z,95274.00
2023-04-25T00:25:58.269Z,95274.00
2023-04-25T00:26:57.268Z,95274.00
2023-04-25T00:27:58.266Z,95272.00
2023-04-25T00:28:58.278Z,95271.00
2023-04-25T00:29:58.238Z,95267.00
2023-04-25T00:30:58.241Z,95263.00
2023-04-25T00:31:58.332Z,95263.00
2023-04-25T00:32:57.272Z,95261.00
2023-04-25T00:33:58.255Z,95261.00
2023-04-25T00:34:58.207Z,95263.00
2023-04-25T00:35:57.187Z,95263.00
2023-04-25T00:36:57.179Z,95263.00
2023-04-25T00:37:58.187Z,95265.00
2023-04-25T00:38:58.202Z,95267.00
2023-04-25T00:39:57.219Z,95267.00
2023-04-25T00:40:58.158Z,95267.00
2023-04-25T00:41:57.143Z,95267.00
2023-04-25T00:42:57.165Z,95267.00
2023-04-25T00:43:57.141Z,95265.00
2023-04-25T00:44:58.156Z,95265.00
2023-04-25T00:45:58.123Z,95259.00
2023-04-25T00:46:57.169Z,95261.00
2023-04-25T00:47:57.194Z,95257.00
2023-04-25T00:48:58.099Z,95263.00
2023-04-25T00:49:57.102Z,95259.00
2023-04-25T00:50:57.116Z,95257.00
2023-04-25T00:51:57.089Z,95257.00
2023-04-25T00:52:57.073Z,95259.00
2023-04-25T00:53:57.081Z,95253.00
2023-04-25T00:54:58.066Z,95253.00
2023-04-25T00:55:58.106Z,95251.00
2023-04-25T00:56:58.032Z,95251.00
2023-04-25T00:57:58.046Z,95251.00
2023-04-25T00:58:58.025Z,95249.00
2023-04-25T00:59:57.011Z,95249.00
2023-04-25T01:00:58.081Z,95249.00
2023-04-25T01:01:57.107Z,95249.00
2023-04-25T01:02:57.140Z,95247.00
2023-04-25T01:03:58.081Z,95247.00
2023-04-25T01:04:58.000Z,95247.00
2023-04-25T01:05:57.976Z,95247.00
2023-04-25T01:06:56.991Z,95247.00
2023-04-25T01:07:56.976Z,95247.00
2023-04-25T01:08:58.016Z,95247.00
2023-04-25T01:09:56.970Z,95247.00
2023-04-25T01:10:57.956Z,95247.00
2023-04-25T01:11:56.951Z,95247.00
2023-04-25T01:12:57.965Z,95247.00
2023-04-25T01:13:57.947Z,95247.00
2023-04-25T01:14:57.915Z,95245.00
2023-04-25T01:15:57.905Z,95249.00
2023-04-25T01:16:58.112Z,95247.00
2023-04-25T01:17:56.914Z,95249.00
2023-04-25T01:18:56.905Z,95249.00
2023-04-25T01:19:56.901Z,95253.00
2023-04-25T01:20:56.874Z,95253.00
2023-04-25T01:21:57.878Z,95253.00
2023-04-25T01:22:57.943Z,95253.00
2023-04-25T01:23:57.927Z,95255.00
2023-04-25T01:24:56.915Z,95251.00
2023-04-25T01:25:57.914Z,95255.00
2023-04-25T01:26:57.943Z,95253.00
2023-04-25T01:27:57.930Z,95253.00
2023-04-25T01:28:57.955Z,95257.00
2023-04-25T01:29:57.958Z,95263.00
2023-04-25T01:30:56.939Z,95259.00
2023-04-25T01:31:57.120Z,95261.00
2023-04-25T01:32:57.029Z,95261.00
2023-04-25T01:33:56.969Z,95259.00
2023-04-25T01:34:56.959Z,95257.00
2023-04-25T01:35:56.983Z,95257.00
2023-04-25T01:36:57.969Z,95255.00
2023-04-25T01:37:57.975Z,95257.00
2023-04-25T01:38:56.978Z,95255.00
2023-04-25T01:39:57.993Z,95255.00
2023-04-25T01:40:57.994Z,95255.00
2023-04-25T01:41:57.654Z,95255.00
2023-04-25T01:42:57.069Z,95255.00
2023-04-25T01:43:56.985Z,95255.00
2023-04-25T01:44:58.000Z,95257.00
2023-04-25T01:45:57.074Z,95257.00
2023-04-25T01:46:58.042Z,95257.00
2023-04-25T01:47:58.173Z,95255.00
2023-04-25T01:48:57.048Z,95253.00
2023-04-25T01:49:58.013Z,95255.00
2023-04-25T01:50:58.042Z,95257.00
2023-04-25T01:51:58.015Z,95255.00
2023-04-25T01:52:58.021Z,95255.00
2023-04-25T01:54:00.434Z,95257.00
2023-04-25T01:54:58.046Z,95257.00
2023-04-25T01:55:57.050Z,95255.00
2023-04-25T01:56:57.046Z,95255.00
2023-04-25T01:57:58.037Z,95259.00
2023-04-25T01:58:57.997Z,95261.00
2023-04-25T01:59:57.999Z,95263.00
2023-04-25T02:00:58.004Z,95257.00
2023-04-25T02:01:58.081Z,95253.00
2023-04-25T02:02:58.081Z,95249.00
2023-04-25T02:03:57.515Z,95247.00
2023-04-25T02:04:57.998Z,95251.00
2023-04-25T02:05:57.949Z,95255.00
2023-04-25T02:06:56.939Z,95257.00
2023-04-25T02:07:57.949Z,95257.00
2023-04-25T02:08:57.939Z,95257.00
2023-04-25T02:09:57.974Z,95253.00
2023-04-25T02:10:57.925Z,95253.00
2023-04-25T02:11:57.932Z,95255.00
2023-04-25T02:12:56.913Z,95255.00
2023-04-25T02:13:56.895Z,95255.00
2023-04-25T02:14:57.929Z,95259.00
2023-04-25T02:15:58.060Z,95263.00
2023-04-25T02:16:58.190Z,95263.00
2023-04-25T02:17:57.940Z,95265.00
2023-04-25T02:18:56.879Z,95265.00
2023-04-25T02:19:56.859Z,95267.00
2023-04-25T02:20:57.879Z,95267.00
2023-04-25T02:21:57.854Z,95265.00
2023-04-25T02:22:56.838Z,95265.00
2023-04-25T02:23:57.842Z,95265.00
2023-04-25T02:24:57.829Z,95265.00
2023-04-25T02:25:57.845Z,95263.00
2023-04-25T02:26:57.828Z,95263.00
2023-04-25T02:27:57.803Z,95261.00
2023-04-25T02:28:57.805Z,95261.00
2023-04-25T02:29:57.809Z,95259.00
2023-04-25T02:30:56.834Z,95261.00
2023-04-25T02:31:57.868Z,95261.00
2023-04-25T02:32:57.834Z,95259.00
2023-04-25T02:33:56.758Z,95259.00
2023-04-25T02:34:57.787Z,95253.00
2023-04-25T02:35:56.745Z,95253.00
2023-04-25T02:36:57.788Z,95249.00
2023-04-25T02:37:57.732Z,95247.00
2023-04-25T02:38:57.818Z,95245.00
2023-04-25T02:39:57.749Z,95245.00
2023-04-25T02:40:57.707Z,95243.00
2023-04-25T02:41:57.711Z,95243.00
2023-04-25T02:42:57.784Z,95243.00
2023-04-25T02:43:57.698Z,95241.00
2023-04-25T02:44:57.705Z,95239.00
2023-04-25T02:45:57.684Z,95239.00
2023-04-25T02:46:57.671Z,95239.00
2023-04-25T02:47:56.704Z,95239.00
2023-04-25T02:48:56.662Z,95235.00
2023-04-25T02:49:57.649Z,95235.00
2023-04-25T02:50:56.747Z,95231.00
2023-04-25T02:51:57.658Z,95231.00
2023-04-25T02:52:56.653Z,95225.00
2023-04-25T02:53:57.658Z,95224.00
2023-04-25T02:54:57.650Z,95224.00
2023-04-25T02:55:57.655Z,95220.00
2023-04-25T02:56:57.611Z,95220.00
2023-04-25T02:57:56.610Z,95222.00
2023-04-25T02:58:56.587Z,95220.00
2023-04-25T02:59:57.611Z,95218.00
2023-04-25T03:00:56.611Z,95218.00
2023-04-25T03:01:57.570Z,95222.00
2023-04-25T03:02:57.646Z,95222.00
2023-04-25T03:03:56.631Z,95218.00
2023-04-25T03:04:56.541Z,95220.00
2023-04-25T03:05:56.532Z,95216.00
2023-04-25T03:06:57.549Z,95212.00
2023-04-25T03:07:57.535Z,95212.00
2023-04-25T03:08:57.534Z,95210.00
2023-04-25T03:09:57.515Z,95208.00
2023-04-25T03:10:56.519Z,95210.00
2023-04-25T03:11:57.492Z,95208.00
2023-04-25T03:12:56.491Z,95208.00
2023-04-25T03:13:57.490Z,95210.00
2023-04-25T03:14:56.489Z,95210.00
2023-04-25T03:15:56.475Z,95212.00
2023-04-25T03:16:57.550Z,95214.00
2023-04-25T03:17:57.480Z,95212.00
2023-04-25T03:18:56.433Z,95212.00
2023-04-25T03:19:57.431Z,95210.00
2023-04-25T03:20:57.434Z,95214.00
2023-04-25T03:21:57.423Z,95212.00
2023-04-25T03:22:57.419Z,95210.00
2023-04-25T03:23:57.416Z,95212.00
2023-04-25T03:24:57.433Z,95210.00
2023-04-25T03:25:56.411Z,95214.00
2023-04-25T03:26:56.431Z,95212.00
2023-04-25T03:27:57.403Z,95206.00
2023-04-25T03:28:56.614Z,95204.00
2023-04-25T03:29:56.411Z,95202.00
2023-04-25T03:30:57.382Z,95206.00
2023-04-25T03:31:57.647Z,95204.00
2023-04-25T03:32:57.378Z,95204.00
2023-04-25T03:33:57.375Z,95196.00
2023-04-25T03:34:57.352Z,95202.00
2023-04-25T03:35:57.336Z,95196.00
2023-04-25T03:36:57.358Z,95194.00
2023-04-25T03:37:57.319Z,95200.00
2023-04-25T03:38:56.307Z,95198.00
2023-04-25T03:39:57.315Z,95194.00
2023-04-25T03:40:57.373Z,95194.00
2023-04-25T03:41:57.274Z,95194.00
2023-04-25T03:42:57.264Z,95194.00
2023-04-25T03:43:56.279Z,95192.00
2023-04-25T03:44:56.267Z,95190.00
2023-04-25T03:45:56.293Z,95190.00
2023-04-25T03:46:56.264Z,95188.00
2023-04-25T03:47:56.327Z,95190.00
2023-04-25T03:48:56.238Z,95188.00
2023-04-25T03:49:57.229Z,95190.00
2023-04-25T03:50:57.221Z,95190.00
2023-04-25T03:51:57.231Z,95192.00
2023-04-25T03:52:57.232Z,95194.00
2023-04-25T03:53:57.220Z,95194.00
2023-04-25T03:54:56.298Z,95196.00
2023-04-25T03:55:57.187Z,95198.00
2023-04-25T03:56:56.193Z,95196.00
2023-04-25T03:57:57.181Z,95196.00
2023-04-25T03:58:57.185Z,95196.00
2023-04-25T03:59:56.184Z,95198.00
2023-04-25T04:00:57.220Z,95202.00
2023-04-25T04:01:57.154Z,95202.00
2023-04-25T04:02:56.263Z,95204.00
2023-04-25T04:03:56.787Z,95202.00
2023-04-25T04:04:57.240Z,95206.00
2023-04-25T04:05:56.206Z,95206.00
2023-04-25T04:06:57.122Z,95204.00
2023-04-25T04:07:56.124Z,95204.00
2023-04-25T04:08:57.094Z,95196.00
2023-04-25T04:09:57.103Z,95202.00
2023-04-25T04:10:56.094Z,95202.00
2023-04-25T04:11:57.106Z,95204.00
2023-04-25T04:12:56.129Z,95204.00
2023-04-25T04:13:57.111Z,95202.00
2023-04-25T04:14:57.115Z,95204.00
2023-04-25T04:15:57.174Z,95202.00
2023-04-25T04:16:57.134Z,95200.00
2023-04-25T04:17:56.262Z,95200.00
2023-04-25T04:18:56.177Z,95202.00
2023-04-25T04:19:56.198Z,95202.00
2023-04-25T04:20:56.243Z,95202.00
2023-04-25T04:21:57.244Z,95206.00
2023-04-25T04:22:57.258Z,95204.00
2023-04-25T04:23:56.323Z,95204.00
2023-04-25T04:24:57.321Z,95202.00
2023-04-25T04:25:56.409Z,95200.00
2023-04-25T04:26:56.340Z,95200.00
2023-04-25T04:27:57.522Z,95202.00
2023-04-25T04:28:57.337Z,95198.00
2023-04-25T04:29:56.316Z,95202.00
2023-04-25T04:30:57.342Z,95202.00
2023-04-25T04:31:57.392Z,95198.00
2023-04-25T04:32:57.476Z,95200.00
2023-04-25T04:33:56.320Z,95204.00
2023-04-25T04:34:57.328Z,95204.00
2023-04-25T04:35:57.346Z,95206.00
2023-04-25T04:36:57.351Z,95202.00
2023-04-25T04:37:57.368Z,95206.00
2023-04-25T04:38:57.422Z,95204.00
2023-04-25T04:39:57.495Z,95204.00
2023-04-25T04:40:57.501Z,95202.00
2023-04-25T04:41:57.479Z,95204.00
2023-04-25T04:42:56.455Z,95202.00
2023-04-25T04:43:57.502Z,95204.00
2023-04-25T04:44:57.477Z,95208.00
2023-04-25T04:45:56.484Z,95206.00
2023-04-25T04:46:56.549Z,95206.00
2023-04-25T04:47:57.537Z,95206.00
2023-04-25T04:48:56.526Z,95206.00
2023-04-25T04:49:56.548Z,95206.00
2023-04-25T04:50:57.567Z,95206.00
2023-04-25T04:51:59.638Z,95208.00
2023-04-25T04:52:57.568Z,95206.00
2023-04-25T04:53:57.576Z,95206.00
2023-04-25T04:54:57.564Z,95208.00
2023-04-25T04:55:57.589Z,95206.00
2023-04-25T04:56:56.547Z,95210.00
2023-04-25T04:57:56.565Z,95206.00
2023-04-25T04:58:57.556Z,95208.00
2023-04-25T04:59:57.562Z,95208.00
2023-04-25T05:00:56.558Z,95206.00
2023-04-25T05:01:57.780Z,95204.00
2023-04-25T05:02:57.663Z,95202.00
2023-04-25T05:03:56.882Z,95206.00
2023-04-25T05:04:57.875Z,95204.00
2023-04-25T05:05:57.485Z,95204.00
2023-04-25T05:06:57.498Z,95204.00
2023-04-25T05:07:56.501Z,95204.00
2023-04-25T05:08:56.467Z,95202.00
2023-04-25T05:09:57.471Z,95202.00
2023-04-25T05:10:57.485Z,95204.00
2023-04-25T05:11:56.450Z,95206.00
2023-04-25T05:12:57.490Z,95202.00
2023-04-25T05:13:57.434Z,95202.00
2023-04-25T05:14:56.441Z,95200.00
2023-04-25T05:15:56.435Z,95200.00
2023-04-25T05:16:57.520Z,95202.00
2023-04-25T05:17:56.511Z,95198.00
2023-04-25T05:18:56.648Z,95198.00
2023-04-25T05:19:57.579Z,95194.00
2023-04-25T05:20:56.510Z,95192.00
2023-04-25T05:21:56.406Z,95194.00
2023-04-25T05:22:57.429Z,95200.00
2023-04-25T05:23:57.526Z,95198.00
2023-04-25T05:24:57.459Z,95200.00
2023-04-25T05:25:56.467Z,95198.00
2023-04-25T05:26:57.493Z,95198.00
2023-04-25T05:27:56.477Z,95196.00
2023-04-25T05:28:56.503Z,95194.00
2023-04-25T05:29:56.542Z,95198.00
2023-04-25T05:30:57.594Z,95190.00
2023-04-25T05:31:56.698Z,95192.00
2023-04-25T05:32:56.632Z,95190.00
2023-04-25T05:33:57.617Z,95190.00
2023-04-25T05:34:57.665Z,95190.00
2023-04-25T05:35:57.632Z,95190.00
2023-04-25T05:36:56.735Z,95192.00
2023-04-25T05:37:56.734Z,95190.00
2023-04-25T05:38:57.769Z,95188.00
2023-04-25T05:39:56.861Z,95188.00
2023-04-25T05:40:57.852Z,95188.00
2023-04-25T05:41:57.883Z,95188.00
2023-04-25T05:42:56.944Z,95188.00
2023-04-25T05:43:58.395Z,95188.00
2023-04-25T05:44:58.069Z,95186.00
2023-04-25T05:45:58.161Z,95186.00
2023-04-25T05:46:57.906Z,95184.00
2023-04-25T05:47:58.303Z,95180.00
2023-04-25T05:48:57.212Z,95180.00
2023-04-25T05:49:58.251Z,95177.00
2023-04-25T05:50:58.441Z,95175.00
2023-04-25T05:51:58.349Z,95175.00
2023-04-25T05:52:58.349Z,95177.00
2023-04-25T05:53:58.386Z,95175.00
2023-04-25T05:54:57.409Z,95175.00
2023-04-25T05:55:57.407Z,95175.00
2023-04-25T05:56:58.432Z,95178.00
2023-04-25T05:57:57.439Z,95177.00
2023-04-25T05:58:58.405Z,95177.00
2023-04-25T05:59:57.815Z,95177.00
2023-04-25T06:00:57.897Z,95177.00
2023-04-25T06:01:58.549Z,95178.00
2023-04-25T06:02:59.059Z,95177.00
2023-04-25T06:03:58.969Z,95175.00
2023-04-25T06:04:57.951Z,95173.00
2023-04-25T06:05:59.014Z,95175.00
2023-04-25T06:06:58.788Z,95175.00
2023-04-25T06:07:58.752Z,95173.00
2023-04-25T06:08:58.848Z,95171.00
2023-04-25T06:09:57.764Z,95173.00
2023-04-25T06:10:58.790Z,95171.00
2023-04-25T06:11:58.911Z,95167.00
2023-04-25T06:12:58.903Z,95173.00
2023-04-25T06:13:58.984Z,95171.00
2023-04-25T06:14:59.033Z,95173.00
2023-04-25T06:15:59.112Z,95175.00
2023-04-25T06:16:58.114Z,95175.00
2023-04-25T06:17:58.253Z,95177.00
2023-04-25T06:18:59.164Z,95177.00
2023-04-25T06:19:59.198Z,95177.00
2023-04-25T06:20:58.230Z,95180.00
2023-04-25T06:21:59.283Z,95178.00
2023-04-25T06:22:58.283Z,95178.00
2023-04-25T06:23:58.314Z,95182.00
2023-04-25T06:24:59.547Z,95178.00
2023-04-25T06:25:59.628Z,95175.00
2023-04-25T06:26:58.476Z,95177.00
2023-04-25T06:27:58.541Z,95173.00
2023-04-25T06:28:59.464Z,95173.00
2023-04-25T06:29:58.489Z,95171.00
2023-04-25T06:30:58.567Z,95167.00
2023-04-25T06:31:59.539Z,95165.00
2023-04-25T06:32:59.615Z,95159.00
2023-04-25T06:33:59.624Z,95147.00
2023-04-25T06:34:58.566Z,95143.00
2023-04-25T06:35:59.630Z,95141.00
2023-04-25T06:36:59.603Z,95137.00
2023-04-25T06:37:59.651Z,95139.00
2023-04-25T06:38:58.657Z,95143.00
2023-04-25T06:39:58.752Z,95141.00
2023-04-25T06:40:59.672Z,95157.00
2023-04-25T06:41:59.098Z,95155.00
2023-04-25T06:42:58.695Z,95157.00
2023-04-25T06:43:59.697Z,95159.00
2023-04-25T06:44:58.823Z,95159.00
2023-04-25T06:45:59.730Z,95159.00
2023-04-25T06:47:00.160Z,95161.00
2023-04-25T06:47:59.894Z,95159.00
2023-04-25T06:48:59.746Z,95161.00
2023-04-25T06:49:58.832Z,95159.00
2023-04-25T06:50:59.882Z,95161.00
2023-04-25T06:52:00.376Z,95159.00
2023-04-25T06:52:59.850Z,95157.00
2023-04-25T06:53:58.891Z,95155.00
2023-04-25T06:54:59.193Z,95155.00
2023-04-25T06:55:58.976Z,95141.00
2023-04-25T06:57:00.265Z,95139.00
2023-04-25T06:57:59.112Z,95139.00
2023-04-25T06:59:00.045Z,95141.00
2023-04-25T07:00:02.112Z,95137.00
2023-04-25T07:00:59.170Z,95135.00
2023-04-25T07:02:00.126Z,95135.00
2023-04-25T07:02:59.352Z,95139.00
2023-04-25T07:04:00.186Z,95143.00
2023-04-25T07:04:59.064Z,95141.00
2023-04-25T07:05:59.027Z,95135.00
2023-04-25T07:07:06.553Z,95139.00
2023-04-25T07:07:58.991Z,95135.00
2023-04-25T07:09:00.009Z,95135.00
2023-04-25T07:10:00.002Z,95135.00
2023-04-25T07:11:00.028Z,95143.00
2023-04-25T07:11:59.982Z,95139.00
2023-04-25T07:12:59.983Z,95143.00
2023-04-25T07:13:59.961Z,95141.00
2023-04-25T07:14:59.956Z,95141.00
2023-04-25T07:15:59.993Z,95143.00
2023-04-25T07:17:00.037Z,95143.00
2023-04-25T07:17:59.965Z,95139.00
2023-04-25T07:18:59.931Z,95139.00
2023-04-25T07:19:58.937Z,95141.00
2023-04-25T07:20:58.909Z,95143.00
2023-04-25T07:21:58.917Z,95147.00
2023-04-25T07:22:58.975Z,95157.00
2023-04-25T07:23:58.927Z,95159.00
2023-04-25T07:24:59.890Z,95161.00
2023-04-25T07:25:59.899Z,95159.00
2023-04-25T07:26:59.875Z,95165.00
2023-04-25T07:27:59.888Z,95163.00
2023-04-25T07:28:59.878Z,95167.00
2023-04-25T07:29:59.899Z,95165.00
2023-04-25T07:30:59.850Z,95165.00
2023-04-25T07:31:58.893Z,95165.00
2023-04-25T07:32:59.838Z,95161.00
2023-04-25T07:33:59.940Z,95159.00
2023-04-25T07:34:58.830Z,95147.00
2023-04-25T07:35:59.830Z,95155.00
2023-04-25T07:36:59.816Z,95143.00
2023-04-25T07:37:59.812Z,95145.00
2023-04-25T07:38:59.827Z,95145.00
2023-04-25T07:39:59.791Z,95147.00
2023-04-25T07:40:59.774Z,95145.00
2023-04-25T07:41:58.777Z,95145.00
2023-04-25T07:42:59.786Z,95143.00
2023-04-25T07:43:59.777Z,95145.00
2023-04-25T07:44:58.776Z,95147.00
2023-04-25T07:45:58.785Z,95147.00
2023-04-25T07:47:00.039Z,95145.00
2023-04-25T07:48:00.307Z,95147.00
2023-04-25T07:48:59.715Z,95145.00
2023-04-25T07:49:59.720Z,95141.00
2023-04-25T07:50:59.739Z,95145.00
2023-04-25T07:51:59.696Z,95141.00
2023-04-25T07:52:58.741Z,95141.00
2023-04-25T07:53:59.684Z,95143.00
2023-04-25T07:54:59.693Z,95147.00
2023-04-25T07:55:58.710Z,95143.00
2023-04-25T07:56:59.769Z,95143.00
2023-04-25T07:57:59.781Z,95147.00
2023-04-25T07:58:59.833Z,95143.00
2023-04-25T07:59:59.842Z,95145.00
2023-04-25T08:00:59.894Z,95143.00
2023-04-25T08:01:59.855Z,95145.00
2023-04-25T08:03:00.066Z,95145.00
2023-04-25T08:04:00.196Z,95145.00
2023-04-25T08:04:58.996Z,95147.00
2023-04-25T08:05:59.103Z,95145.00
2023-04-25T08:06:59.867Z,95147.00
2023-04-25T08:07:59.879Z,95145.00
2023-04-25T08:08:58.843Z,95145.00
2023-04-25T08:09:59.863Z,95143.00
2023-04-25T08:10:59.856Z,95145.00
2023-04-25T08:11:59.832Z,95141.00
2023-04-25T08:12:59.854Z,95143.00
2023-04-25T08:13:59.843Z,95143.00
2023-04-25T08:14:58.823Z,95143.00
2023-04-25T08:15:59.872Z,95143.00
2023-04-25T08:16:59.818Z,95147.00
2023-04-25T08:17:59.853Z,95155.00
2023-04-25T08:18:59.862Z,95145.00
2023-04-25T08:19:58.829Z,95147.00
2023-04-25T08:20:58.825Z,95145.00
2023-04-25T08:21:59.818Z,95155.00
2023-04-25T08:22:59.868Z,95155.00
2023-04-25T08:23:59.890Z,95155.00
2023-04-25T08:24:59.881Z,95155.00
2023-04-25T08:25:59.913Z,95155.00
2023-04-25T08:27:00.143Z,95147.00
2023-04-25T08:27:58.973Z,95155.00
2023-04-25T08:29:00.007Z,95155.00
2023-04-25T08:30:00.101Z,95147.00
2023-04-25T08:31:00.244Z,95147.00
2023-04-25T08:32:00.208Z,95157.00
2023-04-25T08:33:00.285Z,95155.00
2023-04-25T08:33:59.258Z,95155.00
2023-04-25T08:35:00.305Z,95157.00
2023-04-25T08:36:00.279Z,95155.00
2023-04-25T08:36:59.310Z,95155.00
2023-04-25T08:38:00.271Z,95147.00
2023-04-25T08:38:59.268Z,95145.00
2023-04-25T08:40:00.272Z,95147.00
2023-04-25T08:41:00.292Z,95147.00
2023-04-25T08:41:59.284Z,95143.00
2023-04-25T08:43:00.769Z,95143.00
2023-04-25T08:44:00.383Z,95143.00
2023-04-25T08:44:59.381Z,95143.00
2023-04-25T08:45:59.402Z,95145.00
2023-04-25T08:47:00.471Z,95143.00
2023-04-25T08:48:00.457Z,95141.00
2023-04-25T08:49:00.443Z,95143.00
2023-04-25T08:50:00.515Z,95143.00
2023-04-25T08:51:00.544Z,95145.00
2023-04-25T08:52:00.582Z,95139.00
2023-04-25T08:53:00.594Z,95141.00
2023-04-25T08:54:06.403Z,95141.00
2023-04-25T08:55:00.602Z,95141.00
2023-04-25T08:55:59.582Z,95141.00
2023-04-25T08:57:00.597Z,95141.00
2023-04-25T08:57:59.747Z,95139.00
2023-04-25T08:59:00.588Z,95137.00
2023-04-25T08:59:59.575Z,95137.00
2023-04-25T09:01:00.565Z,95137.00
2023-04-25T09:01:59.691Z,95133.00
2023-04-25T09:02:59.823Z,95131.00
2023-04-25T09:04:00.636Z,95131.00
2023-04-25T09:04:59.528Z,95131.00
2023-04-25T09:06:00.553Z,95133.00
2023-04-25T09:07:00.523Z,95131.00
2023-04-25T09:08:00.916Z,95137.00
2023-04-25T09:08:59.502Z,95135.00
2023-04-25T09:10:00.512Z,95133.00
2023-04-25T09:10:59.490Z,95129.00
2023-04-25T09:12:00.494Z,95127.00
2023-04-25T09:13:00.516Z,95131.00
2023-04-25T09:14:00.496Z,95131.00
2023-04-25T09:14:59.617Z,95133.00
2023-04-25T09:16:00.518Z,95129.00
2023-04-25T09:17:00.707Z,95129.00
2023-04-25T09:18:00.572Z,95127.00
2023-04-25T09:19:00.449Z,95131.00
2023-04-25T09:20:00.467Z,95131.00
2023-04-25T09:21:02.233Z,95129.00
2023-04-25T09:22:00.438Z,95129.00
2023-04-25T09:23:00.413Z,95129.00
2023-04-25T09:24:00.410Z,95125.00
2023-04-25T09:25:00.393Z,95125.00
2023-04-25T09:26:00.378Z,95124.00
2023-04-25T09:27:00.378Z,95124.00
2023-04-25T09:27:59.366Z,95122.00
2023-04-25T09:29:00.381Z,95122.00
2023-04-25T09:29:59.385Z,95127.00
2023-04-25T09:30:59.407Z,95125.00
2023-04-25T09:31:59.351Z,95125.00
2023-04-25T09:33:00.370Z,95125.00
2023-04-25T09:34:00.489Z,95122.00
2023-04-25T09:34:59.312Z,95122.00
2023-04-25T09:36:00.328Z,95122.00
2023-04-25T09:37:00.322Z,95124.00
2023-04-25T09:38:00.316Z,95124.00
2023-04-25T09:39:00.296Z,95124.00
2023-04-25T09:40:00.297Z,95127.00
2023-04-25T09:41:00.297Z,95124.00
2023-04-25T09:42:00.279Z,95122.00
2023-04-25T09:42:59.285Z,95125.00
2023-04-25T09:43:59.514Z,95124.00
2023-04-25T09:45:00.331Z,95122.00
2023-04-25T09:46:00.375Z,95124.00
2023-04-25T09:47:00.367Z,95118.00
2023-04-25T09:47:59.355Z,95120.00
2023-04-25T09:48:59.243Z,95120.00
2023-04-25T09:49:59.248Z,95120.00
2023-04-25T09:51:00.240Z,95120.00
2023-04-25T09:51:59.218Z,95122.00
2023-04-25T09:53:00.252Z,95120.00
2023-04-25T09:54:00.194Z,95122.00
2023-04-25T09:55:00.180Z,95122.00
2023-04-25T09:56:00.173Z,95120.00
2023-04-25T09:56:59.187Z,95122.00
2023-04-25T09:58:00.205Z,95120.00
2023-04-25T09:59:00.191Z,95124.00
2023-04-25T10:00:00.225Z,95124.00
2023-04-25T10:00:59.181Z,95120.00
2023-04-25T10:02:00.174Z,95118.00
2023-04-25T10:02:59.299Z,95118.00
2023-04-25T10:04:00.513Z,95120.00
2023-04-25T10:04:59.171Z,95120.00
2023-04-25T10:05:59.134Z,95120.00
2023-04-25T10:06:59.223Z,95116.00
2023-04-25T10:08:00.140Z,95116.00
2023-04-25T10:09:00.139Z,95120.00
2023-04-25T10:09:59.084Z,95116.00
2023-04-25T10:10:59.091Z,95118.00
2023-04-25T10:12:00.111Z,95112.00
2023-04-25T10:13:00.113Z,95116.00
2023-04-25T10:14:00.094Z,95114.00
2023-04-25T10:15:00.098Z,95110.00
2023-04-25T10:16:00.057Z,95112.00
2023-04-25T10:16:59.049Z,95110.00
2023-04-25T10:18:00.160Z,95112.00
2023-04-25T10:18:59.052Z,95108.00
2023-04-25T10:20:00.024Z,95110.00
2023-04-25T10:20:59.021Z,95108.00
2023-04-25T10:22:00.135Z,95108.00
2023-04-25T10:23:00.014Z,95106.00
2023-04-25T10:23:59.993Z,95106.00
2023-04-25T10:24:59.037Z,95104.00
2023-04-25T10:26:00.091Z,95106.00
2023-04-25T10:26:59.092Z,95102.00
2023-04-25T10:28:00.182Z,95104.00
2023-04-25T10:28:59.191Z,95102.00
2023-04-25T10:29:59.253Z,95102.00
2023-04-25T10:30:59.366Z,95104.00
2023-04-25T10:32:00.497Z,95104.00
2023-04-25T10:33:00.436Z,95104.00
2023-04-25T10:34:00.445Z,95106.00
2023-04-25T10:35:00.562Z,95104.00
2023-04-25T10:36:00.541Z,95108.00
2023-04-25T10:36:59.525Z,95108.00
2023-04-25T10:38:00.597Z,95102.00
2023-04-25T10:38:59.508Z,95100.00
2023-04-25T10:40:00.519Z,95100.00
2023-04-25T10:40:59.503Z,95098.00
2023-04-25T10:41:59.551Z,95102.00
2023-04-25T10:42:59.506Z,95102.00
2023-04-25T10:44:00.822Z,95104.00
2023-04-25T10:45:00.523Z,95102.00
2023-04-25T10:45:59.532Z,95104.00
2023-04-25T10:47:00.661Z,95102.00
2023-04-25T10:48:00.579Z,95102.00
2023-04-25T10:49:00.545Z,95104.00
2023-04-25T10:50:00.620Z,95104.00
2023-04-25T10:51:00.670Z,95104.00
2023-04-25T10:51:59.678Z,95106.00
2023-04-25T10:53:00.804Z,95102.00
2023-04-25T10:54:00.794Z,95108.00
2023-04-25T10:55:00.891Z,95104.00
2023-04-25T10:56:00.905Z,95106.00
2023-04-25T10:56:59.972Z,95108.00
2023-04-25T10:58:00.018Z,95108.00
2023-04-25T10:59:00.009Z,95108.00
2023-04-25T11:00:01.038Z,95110.00
2023-04-25T11:01:01.124Z,95112.00
2023-04-25T11:02:01.250Z,95114.00
2023-04-25T11:03:00.353Z,95114.00
2023-04-25T11:04:00.502Z,95116.00
2023-04-25T11:05:00.236Z,95120.00
2023-04-25T11:06:01.260Z,95118.00
2023-04-25T11:07:06.372Z,95120.00
2023-04-25T11:08:07.729Z,95122.00
2023-04-25T11:09:01.304Z,95122.00
2023-04-25T11:10:01.314Z,95124.00
2023-04-25T11:11:01.277Z,95124.00
2023-04-25T11:12:01.259Z,95124.00
2023-04-25T11:13:01.266Z,95122.00
2023-04-25T11:14:00.252Z,95122.00
2023-04-25T11:15:01.263Z,95122.00
2023-04-25T11:16:07.549Z,95122.00
2023-04-25T11:17:01.454Z,95118.00
2023-04-25T11:18:00.343Z,95120.00
2023-04-25T11:19:00.236Z,95120.00
2023-04-25T11:20:01.204Z,95120.00
2023-04-25T11:21:01.215Z,95120.00
2023-04-25T11:22:00.198Z,95116.00
2023-04-25T11:23:00.229Z,95114.00
2023-04-25T11:24:01.186Z,95114.00
2023-04-25T11:25:01.192Z,95108.00
2023-04-25T11:26:00.173Z,95108.00
2023-04-25T11:27:01.163Z,95106.00
2023-04-25T11:28:01.159Z,95106.00
2023-04-25T11:29:01.140Z,95104.00
2023-04-25T11:30:00.335Z,95102.00
2023-04-25T11:31:01.166Z,95102.00
2023-04-25T11:32:00.206Z,95100.00
2023-04-25T11:33:00.159Z,95100.00
2023-04-25T11:34:01.139Z,95100.00
2023-04-25T11:35:01.113Z,95100.00
2023-04-25T11:36:01.112Z,95094.00
2023-04-25T11:37:01.109Z,95096.00
2023-04-25T11:38:01.087Z,95092.00
2023-04-25T11:39:01.320Z,95090.00
2023-04-25T11:40:01.111Z,95092.00
2023-04-25T11:41:00.074Z,95090.00
2023-04-25T11:42:01.434Z,95086.00
2023-04-25T11:43:00.065Z,95092.00
2023-04-25T11:44:00.044Z,95088.00
2023-04-25T11:45:01.047Z,95086.00